createdAt,value
2022-07-31T00:00:22.678Z,8.45
2022-07-31T00:02:49.599Z,9.25
2022-07-31T00:05:16.782Z,7.68
2022-07-31T00:07:43.764Z,9.15
2022-07-31T00:10:11.127Z,9.07
2022-07-31T00:12:38.003Z,10.93
2022-07-31T00:15:07.729Z,11.25
2022-07-31T00:17:34.799Z,11.80
2022-07-31T00:20:02.278Z,10.93
2022-07-31T00:22:30.121Z,9.52
2022-07-31T00:24:57.389Z,10.43
2022-07-31T00:27:24.575Z,9.60
2022-07-31T00:29:51.665Z,18.05
2022-07-31T00:32:18.669Z,10.73
2022-07-31T00:34:45.701Z,9.77
2022-07-31T00:37:12.671Z,8.85
2022-07-31T00:39:39.635Z,10.18
2022-07-31T00:42:23.044Z,10.75
2022-07-31T00:44:51.086Z,12.27
2022-07-31T00:47:24.020Z,11.02
2022-07-31T00:49:53.358Z,10.43
2022-07-31T00:52:21.135Z,10.02
2022-07-31T00:54:48.173Z,10.85
2022-07-31T00:57:15.677Z,10.00
2022-07-31T00:59:43.761Z,11.57
2022-07-31T01:02:11.491Z,11.63
2022-07-31T01:04:41.702Z,11.82
2022-07-31T01:07:09.149Z,11.48
2022-07-31T01:09:36.935Z,12.35
2022-07-31T01:12:20.910Z,10.30
2022-07-31T01:14:59.809Z,10.65
2022-07-31T01:17:31.929Z,9.57
2022-07-31T01:19:59.602Z,10.23
2022-07-31T01:23:04.224Z,12.35
2022-07-31T01:26:27.108Z,10.48
2022-07-31T01:29:15.460Z,11.60
2022-07-31T01:32:07.908Z,11.50
2022-07-31T01:34:51.537Z,10.07
2022-07-31T01:37:33.336Z,10.75
2022-07-31T01:40:10.141Z,12.48
2022-07-31T01:42:42.487Z,10.68
2022-07-31T01:45:14.194Z,12.10
2022-07-31T01:47:43.773Z,10.95
2022-07-31T01:50:41.812Z,12.98
2022-07-31T01:53:00.884Z,12.35
2022-07-31T01:55:31.390Z,13.43
2022-07-31T01:58:22.978Z,11.65
2022-07-31T02:00:54.118Z,13.60
2022-07-31T02:03:43.527Z,11.65
2022-07-31T02:06:17.927Z,10.35
2022-07-31T02:08:52.025Z,10.85
2022-07-31T02:13:50.684Z,11.52
2022-07-31T02:16:19.601Z,13.77
2022-07-31T02:18:52.410Z,14.23
2022-07-31T02:21:21.952Z,13.38
2022-07-31T02:23:50.650Z,12.80
2022-07-31T02:26:17.943Z,15.10
2022-07-31T02:28:48.685Z,11.27
2022-07-31T02:31:17.851Z,9.82
2022-07-31T02:33:48.171Z,11.65
2022-07-31T02:36:20.012Z,12.77
2022-07-31T02:38:49.429Z,13.55
2022-07-31T02:41:18.535Z,11.30
2022-07-31T02:43:46.863Z,11.40
2022-07-31T02:46:21.863Z,12.52
2022-07-31T02:48:51.117Z,12.55
2022-07-31T02:51:20.118Z,11.43
2022-07-31T02:53:47.485Z,14.27
2022-07-31T02:56:16.176Z,11.85
2022-07-31T02:58:43.347Z,11.77
2022-07-31T03:01:19.136Z,10.75
2022-07-31T03:03:46.730Z,11.63
2022-07-31T03:06:14.426Z,11.05
2022-07-31T03:08:41.353Z,10.73
2022-07-31T03:11:08.709Z,12.77
2022-07-31T03:13:37.744Z,12.15
2022-07-31T03:16:09.669Z,11.30
2022-07-31T03:18:38.243Z,10.73
2022-07-31T03:21:05.985Z,10.85
2022-07-31T03:23:38.456Z,9.65
2022-07-31T03:26:10.440Z,8.68
2022-07-31T03:28:37.829Z,11.35
2022-07-31T03:31:04.991Z,10.35
2022-07-31T03:33:31.901Z,10.57
2022-07-31T03:35:59.152Z,10.75
2022-07-31T03:38:38.517Z,9.05
2022-07-31T03:41:17.028Z,10.52
2022-07-31T03:43:48.141Z,10.93
2022-07-31T03:46:21.860Z,10.97
2022-07-31T03:48:52.121Z,12.18
2022-07-31T03:51:19.848Z,11.20
2022-07-31T03:53:48.265Z,10.57
2022-07-31T03:56:37.544Z,11.90
2022-07-31T03:59:04.568Z,12.05
2022-07-31T04:01:57.930Z,10.23
2022-07-31T04:04:34.700Z,11.95
2022-07-31T04:07:05.076Z,11.30
2022-07-31T04:09:32.348Z,11.52
2022-07-31T04:11:59.708Z,11.88
2022-07-31T04:14:26.552Z,25.52
2022-07-31T04:16:53.767Z,14.70
2022-07-31T04:19:20.617Z,14.30
2022-07-31T04:21:47.510Z,14.20
2022-07-31T04:24:16.999Z,14.68
2022-07-31T04:27:08.107Z,9.20
2022-07-31T04:29:42.585Z,10.57
2022-07-31T04:32:09.572Z,7.95
2022-07-31T04:34:43.627Z,8.57
2022-07-31T04:37:10.733Z,8.73
2022-07-31T04:39:37.588Z,8.50
2022-07-31T04:42:10.703Z,11.68
2022-07-31T04:44:38.266Z,11.57
2022-07-31T04:47:07.204Z,9.80
2022-07-31T04:49:37.005Z,11.32
2022-07-31T04:52:05.915Z,11.32
2022-07-31T04:54:34.181Z,8.77
2022-07-31T04:57:01.645Z,9.65
2022-07-31T05:00:00.417Z,9.63
2022-07-31T05:02:15.669Z,9.65
2022-07-31T05:04:42.669Z,9.70
2022-07-31T05:07:09.514Z,10.43
2022-07-31T05:09:36.652Z,9.13
2022-07-31T05:12:06.610Z,8.80
2022-07-31T05:14:34.072Z,9.07
2022-07-31T05:17:00.919Z,9.23
2022-07-31T05:19:41.325Z,8.52
2022-07-31T05:22:24.042Z,8.30
2022-07-31T05:25:12.420Z,8.27
2022-07-31T05:27:41.403Z,10.50
2022-07-31T05:30:09.922Z,8.30
2022-07-31T05:32:37.422Z,10.48
2022-07-31T05:35:04.866Z,7.60
2022-07-31T05:37:33.802Z,9.25
2022-07-31T05:40:10.038Z,10.50
2022-07-31T05:42:55.811Z,7.78
2022-07-31T05:45:48.228Z,7.63
2022-07-31T05:48:17.068Z,7.93
2022-07-31T05:50:46.006Z,7.57
2022-07-31T05:53:17.444Z,8.73
2022-07-31T05:56:10.094Z,11.07
2022-07-31T05:58:48.844Z,10.10
2022-07-31T06:01:16.597Z,7.20
2022-07-31T06:03:51.737Z,6.57
2022-07-31T06:06:26.816Z,7.85
2022-07-31T06:08:53.780Z,6.93
2022-07-31T06:11:21.031Z,5.00
2022-07-31T06:13:48.089Z,6.07
2022-07-31T06:16:20.722Z,5.60
2022-07-31T06:18:48.077Z,5.15
2022-07-31T06:23:41.038Z,5.15
2022-07-31T06:26:27.643Z,7.65
2022-07-31T06:28:54.736Z,4.70
2022-07-31T06:31:22.569Z,5.85
2022-07-31T06:33:53.087Z,7.00
2022-07-31T06:36:23.982Z,5.70
2022-07-31T06:39:01.922Z,4.55
2022-07-31T06:41:49.445Z,5.75
2022-07-31T06:44:28.963Z,5.13
2022-07-31T06:47:22.343Z,7.82
2022-07-31T06:49:59.762Z,7.45
2022-07-31T06:52:28.374Z,3.83
2022-07-31T06:54:55.910Z,3.90
2022-07-31T06:57:22.943Z,6.38
2022-07-31T06:59:50.053Z,3.97
2022-07-31T07:02:17.156Z,8.80
2022-07-31T07:05:04.870Z,5.07
2022-07-31T07:07:31.702Z,4.47
2022-07-31T07:10:00.864Z,4.13
2022-07-31T07:12:50.844Z,6.15
2022-07-31T07:15:18.394Z,4.28
2022-07-31T07:17:45.263Z,4.80
2022-07-31T07:20:17.012Z,5.18
2022-07-31T07:22:43.957Z,4.95
2022-07-31T07:25:13.442Z,5.88
2022-07-31T07:27:40.545Z,4.25
2022-07-31T07:30:08.305Z,4.15
2022-07-31T07:32:35.221Z,12.02
2022-07-31T07:35:04.024Z,6.43
2022-07-31T07:37:46.492Z,5.28
2022-07-31T07:40:14.422Z,5.00
2022-07-31T07:42:41.375Z,4.00
2022-07-31T07:45:10.043Z,4.95
2022-07-31T07:48:02.367Z,6.55
2022-07-31T07:50:50.499Z,5.05
2022-07-31T07:53:17.321Z,7.05
2022-07-31T07:56:07.553Z,4.28
2022-07-31T07:58:52.873Z,8.13
2022-07-31T08:01:40.792Z,5.47
2022-07-31T08:04:28.029Z,5.45
2022-07-31T08:06:54.926Z,6.38
2022-07-31T08:09:25.714Z,5.93
2022-07-31T08:12:11.161Z,4.57
2022-07-31T08:15:01.612Z,5.50
2022-07-31T08:17:47.279Z,3.95
2022-07-31T08:20:14.522Z,8.05
2022-07-31T08:22:41.687Z,4.13
2022-07-31T08:25:09.104Z,6.38
2022-07-31T08:27:44.268Z,4.63
2022-07-31T08:30:16.201Z,5.82
2022-07-31T08:32:43.163Z,8.57
2022-07-31T08:35:21.549Z,7.60
2022-07-31T08:37:59.113Z,4.78
2022-07-31T08:40:35.916Z,5.43
2022-07-31T08:43:59.562Z,6.40
2022-07-31T08:46:04.417Z,5.38
2022-07-31T08:48:40.350Z,6.35
2022-07-31T08:51:13.677Z,5.53
2022-07-31T08:54:01.251Z,3.72
2022-07-31T08:56:29.343Z,5.93
2022-07-31T08:58:57.100Z,6.68
2022-07-31T09:01:24.437Z,5.57
2022-07-31T09:03:53.053Z,5.55
2022-07-31T09:06:20.662Z,3.65
2022-07-31T09:08:47.626Z,3.92
2022-07-31T09:11:15.317Z,4.18
2022-07-31T09:14:16.088Z,4.65
2022-07-31T09:16:50.507Z,5.00
2022-07-31T09:19:53.922Z,3.53
2022-07-31T09:22:24.426Z,4.13
2022-07-31T09:24:52.355Z,6.72
2022-07-31T09:27:20.230Z,4.88
2022-07-31T09:29:49.535Z,3.47
2022-07-31T09:32:27.786Z,3.55
2022-07-31T09:35:12.180Z,5.10
2022-07-31T09:37:40.418Z,5.55
2022-07-31T09:40:37.554Z,4.88
2022-07-31T09:43:46.154Z,5.65
2022-07-31T09:46:18.943Z,3.90
2022-07-31T09:49:00.133Z,7.22
2022-07-31T09:51:45.698Z,5.18
2022-07-31T09:54:22.886Z,7.00
2022-07-31T09:57:15.417Z,4.97
2022-07-31T09:59:45.495Z,3.67
2022-07-31T10:02:16.065Z,2.85
2022-07-31T10:04:48.375Z,4.50
2022-07-31T10:07:31.859Z,3.95
2022-07-31T10:10:07.937Z,4.05
2022-07-31T10:12:50.107Z,5.47
2022-07-31T10:17:57.198Z,4.55
2022-07-31T10:20:42.100Z,5.15
2022-07-31T10:23:30.658Z,3.88
2022-07-31T10:26:02.992Z,4.20
2022-07-31T10:28:30.314Z,3.85
2022-07-31T10:30:58.794Z,2.83
2022-07-31T10:33:43.757Z,3.40
2022-07-31T10:37:16.674Z,3.92
2022-07-31T10:41:38.041Z,5.45
2022-07-31T10:44:55.974Z,7.57
2022-07-31T10:47:34.530Z,5.97
2022-07-31T10:50:27.453Z,3.35
2022-07-31T10:53:18.582Z,3.00
2022-07-31T10:56:12.923Z,2.75
2022-07-31T10:59:00.017Z,4.10
2022-07-31T11:01:59.602Z,4.13
2022-07-31T11:04:45.412Z,4.40
2022-07-31T11:07:19.694Z,5.30
2022-07-31T11:10:29.427Z,4.22
2022-07-31T11:13:17.616Z,3.22
2022-07-31T11:16:05.882Z,3.58
2022-07-31T11:18:42.979Z,4.00
2022-07-31T11:21:37.169Z,4.95
2022-07-31T11:24:03.063Z,5.35
2022-07-31T11:26:33.335Z,4.57
2022-07-31T11:29:59.399Z,5.75
2022-07-31T11:32:16.648Z,5.38
2022-07-31T11:34:49.627Z,5.63
2022-07-31T11:37:23.140Z,6.55
2022-07-31T11:39:55.103Z,4.20
2022-07-31T11:42:27.795Z,4.30
2022-07-31T11:45:11.037Z,3.75
2022-07-31T11:48:10.897Z,3.57
2022-07-31T11:50:41.607Z,6.30
2022-07-31T11:53:09.131Z,4.88
2022-07-31T11:55:46.989Z,3.72
2022-07-31T11:58:20.438Z,4.85
2022-07-31T12:00:55.729Z,7.23
2022-07-31T12:03:29.167Z,5.00
2022-07-31T12:05:56.232Z,4.33
2022-07-31T12:08:25.484Z,3.72
2022-07-31T12:10:57.444Z,2.53
2022-07-31T12:13:26.499Z,3.45
2022-07-31T12:16:09.995Z,3.00
2022-07-31T12:18:50.185Z,4.68
2022-07-31T12:21:19.179Z,4.50
2022-07-31T12:23:52.663Z,4.88
2022-07-31T12:26:29.368Z,4.20
2022-07-31T12:28:58.995Z,4.13
2022-07-31T12:31:26.512Z,3.92
2022-07-31T12:33:53.490Z,3.88
2022-07-31T12:36:21.536Z,3.15
2022-07-31T12:39:01.042Z,3.10
2022-07-31T12:41:29.851Z,3.53
2022-07-31T12:44:09.900Z,3.25
2022-07-31T12:46:40.323Z,2.53
2022-07-31T12:49:08.330Z,4.25
2022-07-31T12:51:46.342Z,5.25
2022-07-31T12:54:16.713Z,4.60
2022-07-31T12:56:45.103Z,5.05
2022-07-31T12:59:13.166Z,4.45
2022-07-31T13:01:40.292Z,2.85
2022-07-31T13:04:07.788Z,2.20
2022-07-31T13:06:45.872Z,1.77
2022-07-31T13:09:12.811Z,2.65
2022-07-31T13:11:45.696Z,2.33
2022-07-31T13:14:16.756Z,3.67
2022-07-31T13:16:45.459Z,2.83
2022-07-31T13:19:13.642Z,3.75
2022-07-31T13:21:49.571Z,1.98
2022-07-31T13:24:21.363Z,4.25
2022-07-31T13:26:49.294Z,2.67
2022-07-31T13:29:17.204Z,4.05
2022-07-31T13:31:44.359Z,1.90
2022-07-31T13:34:11.542Z,3.53
2022-07-31T13:36:39.318Z,2.08
2022-07-31T13:39:08.300Z,2.42
2022-07-31T13:41:36.070Z,2.40
2022-07-31T13:44:06.933Z,2.53
2022-07-31T13:46:35.693Z,2.40
2022-07-31T13:49:08.069Z,3.88
2022-07-31T13:54:10.971Z,2.67
2022-07-31T13:56:42.822Z,2.38
2022-07-31T13:59:12.825Z,3.20
2022-07-31T14:02:03.850Z,4.53
2022-07-31T14:04:32.953Z,2.20
2022-07-31T14:07:06.608Z,1.63
2022-07-31T14:09:37.488Z,3.03
2022-07-31T14:12:05.865Z,2.92
2022-07-31T14:14:33.466Z,4.38
2022-07-31T14:17:00.306Z,2.03
2022-07-31T14:19:27.189Z,4.32
2022-07-31T14:21:57.092Z,3.13
2022-07-31T14:24:25.982Z,1.83
2022-07-31T14:26:53.385Z,2.55
2022-07-31T14:29:20.518Z,4.38
2022-07-31T14:31:47.342Z,3.75
2022-07-31T14:34:14.202Z,3.83
2022-07-31T14:36:41.092Z,2.72
2022-07-31T14:39:07.994Z,1.63
2022-07-31T14:41:34.926Z,1.70
2022-07-31T14:44:01.719Z,2.58
2022-07-31T14:46:28.670Z,1.48
2022-07-31T14:48:55.736Z,2.03
2022-07-31T14:51:22.811Z,1.25
2022-07-31T14:53:49.769Z,2.03
2022-07-31T14:56:27.353Z,1.27
2022-07-31T14:59:03.540Z,3.58
2022-07-31T15:01:30.914Z,2.35
2022-07-31T15:03:58.445Z,5.25
2022-07-31T15:06:48.707Z,2.03
2022-07-31T15:09:14.882Z,1.98
2022-07-31T15:12:01.319Z,1.70
2022-07-31T15:14:30.092Z,3.00
2022-07-31T15:16:57.703Z,1.20
2022-07-31T15:19:24.669Z,2.53
2022-07-31T15:22:15.697Z,2.17
2022-07-31T15:24:43.702Z,2.85
2022-07-31T15:27:21.788Z,1.10
2022-07-31T15:30:05.957Z,2.10
2022-07-31T15:32:38.810Z,2.20
2022-07-31T15:35:09.291Z,1.45
2022-07-31T15:37:39.025Z,1.00
2022-07-31T15:40:10.013Z,1.00
2022-07-31T15:42:42.760Z,2.30
2022-07-31T15:45:16.314Z,1.40
2022-07-31T15:47:44.863Z,3.65
2022-07-31T15:50:14.963Z,3.80
2022-07-31T15:52:42.815Z,1.63
2022-07-31T15:55:10.485Z,3.85
2022-07-31T15:57:37.804Z,1.10
2022-07-31T16:00:09.559Z,2.75
2022-07-31T16:02:41.546Z,1.83
2022-07-31T16:05:11.508Z,1.63
2022-07-31T16:08:29.417Z,1.58
2022-07-31T16:10:34.061Z,1.25
2022-07-31T16:13:01.300Z,2.88
2022-07-31T16:15:28.318Z,1.35
2022-07-31T16:17:55.292Z,2.10
2022-07-31T16:20:27.128Z,1.20
2022-07-31T16:22:58.249Z,1.50
2022-07-31T16:25:27.419Z,1.52
2022-07-31T16:27:55.464Z,1.42
2022-07-31T16:30:22.811Z,1.60
2022-07-31T16:32:50.142Z,1.42
2022-07-31T16:35:17.183Z,3.65
2022-07-31T16:37:51.922Z,1.83
2022-07-31T16:40:29.790Z,1.13
2022-07-31T16:43:49.625Z,1.90
2022-07-31T16:45:51.885Z,4.00
2022-07-31T16:48:19.113Z,1.30
2022-07-31T16:50:53.802Z,4.78
2022-07-31T16:54:09.972Z,1.73
2022-07-31T16:56:16.634Z,1.60
2022-07-31T16:58:48.397Z,1.25
2022-07-31T17:01:57.349Z,2.55
2022-07-31T17:04:04.698Z,3.45
2022-07-31T17:06:37.999Z,1.65
2022-07-31T17:09:17.109Z,1.40
2022-07-31T17:11:48.113Z,1.40
2022-07-31T17:14:17.914Z,0.98
2022-07-31T17:16:48.125Z,2.28
2022-07-31T17:19:42.630Z,1.15
2022-07-31T17:22:10.907Z,2.22
2022-07-31T17:24:39.478Z,1.45
2022-07-31T17:27:08.804Z,1.73
2022-07-31T17:29:37.773Z,1.95
2022-07-31T17:32:05.769Z,2.67
2022-07-31T17:34:32.801Z,1.77
2022-07-31T17:36:59.741Z,2.08
2022-07-31T17:39:30.615Z,2.45
2022-07-31T17:41:58.755Z,1.67
2022-07-31T17:44:26.271Z,1.67
2022-07-31T17:46:54.722Z,1.45
2022-07-31T17:49:21.755Z,2.47
2022-07-31T17:51:59.527Z,2.25
2022-07-31T17:54:35.383Z,1.20
2022-07-31T17:57:02.766Z,1.73
2022-07-31T17:59:30.462Z,4.07
2022-07-31T18:02:03.528Z,1.60
2022-07-31T18:04:34.182Z,1.27
2022-07-31T18:07:04.378Z,1.10
2022-07-31T18:09:32.824Z,1.50
2022-07-31T18:12:00.240Z,1.25
2022-07-31T18:14:27.235Z,1.63
2022-07-31T18:16:54.951Z,1.70
2022-07-31T18:19:22.517Z,1.75
2022-07-31T18:21:51.321Z,1.00
2022-07-31T18:24:20.042Z,1.17
2022-07-31T18:26:47.342Z,1.67
2022-07-31T18:29:14.201Z,1.40
2022-07-31T18:31:41.447Z,0.95
2022-07-31T18:34:08.455Z,1.13
2022-07-31T18:36:35.636Z,1.83
2022-07-31T18:39:05.219Z,1.38
2022-07-31T18:41:34.046Z,1.77
2022-07-31T18:44:01.897Z,1.33
2022-07-31T18:46:29.228Z,1.20
2022-07-31T18:48:56.817Z,2.00
2022-07-31T18:51:25.588Z,2.92
2022-07-31T18:53:54.342Z,1.75
2022-07-31T18:56:25.671Z,1.17
2022-07-31T18:58:53.971Z,1.67
2022-07-31T19:01:22.304Z,1.55
2022-07-31T19:03:49.971Z,1.83
2022-07-31T19:06:17.995Z,1.95
2022-07-31T19:08:45.980Z,1.48
2022-07-31T19:11:12.896Z,2.05
2022-07-31T19:13:39.769Z,1.30
2022-07-31T19:16:06.857Z,1.77
2022-07-31T19:18:34.104Z,1.58
2022-07-31T19:21:19.078Z,1.38
2022-07-31T19:23:49.423Z,1.17
2022-07-31T19:26:16.489Z,1.13
2022-07-31T19:28:43.502Z,1.30
2022-07-31T19:31:11.565Z,1.25
2022-07-31T19:33:38.752Z,2.25
2022-07-31T19:36:06.337Z,1.38
2022-07-31T19:38:37.949Z,2.38
2022-07-31T19:41:05.263Z,1.90
2022-07-31T19:43:33.077Z,1.58
2022-07-31T19:46:11.174Z,1.83
2022-07-31T19:48:45.056Z,2.15
2022-07-31T19:51:15.056Z,3.47
2022-07-31T19:53:43.201Z,3.92
2022-07-31T19:56:14.652Z,2.42
2022-07-31T19:58:45.173Z,1.52
2022-07-31T20:01:14.335Z,1.98
2022-07-31T20:03:41.549Z,2.08
2022-07-31T20:06:08.853Z,2.03
2022-07-31T20:08:35.985Z,1.70
2022-07-31T20:11:05.330Z,1.98
2022-07-31T20:13:34.172Z,1.98
2022-07-31T20:16:01.901Z,1.90
2022-07-31T20:18:30.343Z,2.63
2022-07-31T20:21:05.364Z,2.55
2022-07-31T20:23:34.116Z,1.95
2022-07-31T20:26:02.297Z,2.10
2022-07-31T20:28:29.131Z,2.67
2022-07-31T20:30:56.693Z,2.63
2022-07-31T20:33:23.955Z,2.03
2022-07-31T20:35:50.997Z,3.35
2022-07-31T20:38:23.023Z,3.00
2022-07-31T20:40:55.086Z,1.65
2022-07-31T20:43:30.003Z,1.35
2022-07-31T20:45:59.122Z,1.75
2022-07-31T20:48:31.888Z,1.73
2022-07-31T20:51:01.246Z,2.28
2022-07-31T20:53:29.674Z,3.13
2022-07-31T20:55:56.780Z,3.47
2022-07-31T20:58:25.039Z,1.52
2022-07-31T21:00:54.202Z,1.38
2022-07-31T21:03:21.653Z,1.40
2022-07-31T21:05:49.095Z,2.90
2022-07-31T21:08:16.796Z,2.03
2022-07-31T21:10:45.253Z,1.65
2022-07-31T21:13:12.903Z,1.60
2022-07-31T21:15:44.183Z,2.00
2022-07-31T21:18:16.975Z,1.60
2022-07-31T21:20:51.465Z,1.75
2022-07-31T21:23:23.142Z,3.63
2022-07-31T21:25:52.272Z,1.63
2022-07-31T21:28:19.675Z,2.15
2022-07-31T21:30:47.139Z,2.60
2022-07-31T21:33:14.277Z,2.55
2022-07-31T21:35:41.476Z,2.78
2022-07-31T21:38:11.816Z,1.20
2022-07-31T21:40:40.546Z,1.90
2022-07-31T21:43:08.680Z,2.88
2022-07-31T21:45:50.642Z,1.77
2022-07-31T21:48:26.336Z,3.00
2022-07-31T21:50:54.763Z,2.17
2022-07-31T21:53:23.187Z,1.77
2022-07-31T21:55:51.298Z,3.03
2022-07-31T21:58:19.251Z,2.08
2022-07-31T22:00:46.325Z,3.35
2022-07-31T22:03:13.239Z,4.50
2022-07-31T22:05:58.649Z,3.60
2022-07-31T22:08:25.795Z,3.83
2022-07-31T22:10:53.668Z,2.72
2022-07-31T22:13:21.495Z,2.65
2022-07-31T22:15:52.702Z,1.98
2022-07-31T22:18:32.217Z,3.42
2022-07-31T22:21:01.433Z,2.17
2022-07-31T22:23:29.564Z,2.55
2022-07-31T22:25:57.682Z,1.45
2022-07-31T22:28:26.921Z,2.20
2022-07-31T22:30:55.919Z,2.05
2022-07-31T22:33:23.991Z,3.30
2022-07-31T22:35:58.772Z,2.67
2022-07-31T22:38:30.475Z,1.55
2022-07-31T22:40:59.970Z,3.63
2022-07-31T22:44:13.198Z,1.52
2022-07-31T22:46:15.594Z,2.35
2022-07-31T22:48:45.636Z,2.03
2022-07-31T22:51:14.598Z,3.95
2022-07-31T22:53:49.105Z,3.72
2022-07-31T22:56:17.862Z,3.55
2022-07-31T22:58:44.741Z,2.92
2022-07-31T23:01:11.789Z,2.70
2022-07-31T23:03:38.654Z,2.10
2022-07-31T23:06:31.607Z,4.07
2022-07-31T23:08:55.104Z,3.22
2022-07-31T23:11:24.392Z,2.55
2022-07-31T23:13:52.354Z,2.42
2022-07-31T23:16:20.432Z,2.35
2022-07-31T23:18:49.098Z,2.30
2022-07-31T23:21:18.794Z,2.05
2022-07-31T23:23:48.642Z,2.28
2022-07-31T23:26:18.532Z,3.03
2022-07-31T23:28:46.527Z,2.50
2022-07-31T23:31:14.031Z,3.22
2022-07-31T23:33:41.331Z,2.53
2022-07-31T23:36:08.265Z,2.20
2022-07-31T23:38:35.087Z,2.35
2022-07-31T23:41:02.700Z,2.45
2022-07-31T23:43:29.728Z,2.03
2022-07-31T23:45:57.142Z,2.05
2022-07-31T23:48:24.334Z,1.88
2022-07-31T23:50:57.452Z,2.53
2022-07-31T23:53:24.426Z,1.90
2022-07-31T23:55:51.408Z,2.95
2022-07-31T23:58:18.298Z,2.20
